Terminal Aerodrome Forecast
Issued by NWS

Home | Current Version | Previous Version | Text Only | Print | Product List | Glossary On
Versions: 1 2 3 4 5 6 7 8 9 10 11 12 13 14 15 16 17 18 19 20 21 22
000
FTUS41 KGYX 210708 RRB
TAFHIE
TAF
KHIE 210708Z 2107/2206 VRB03KT P6SM BKN050
     FM210800 00000KT 4SM BR SCT002 BKN250
     FM211300 VRB03KT P6SM VCSH BKN050=

USA.gov is the U.S. government's official web portal to all federal, state and local government web resources and services.